Time;durP1;ratioP1;P1;durP2;ratioP2;P2;SDS_P1;SDS_P2;PMS_P1;PMS_P2;Temp;Humidity;BMP_temperature;BMP_pressure;BME280_temperature;BME280_humidity;BME280_pressure;Samples;Min_cycle;Max_cycle;Signal;HPM_P1;HPM_P2
2021/01/13 00:00:28;;;;;;;16.30;7.67;;;1.10;99.90;;;;;;4880189;29;20259;-69
2021/01/13 00:02:56;;;;;;;18.57;8.00;;;1.10;99.90;;;;;;4879834;29;20582;-69
2021/01/13 00:05:22;;;;;;;15.93;7.40;;;1.10;99.90;;;;;;4899551;29;20210;-69
2021/01/13 00:07:50;;;;;;;13.40;7.47;;;1.10;99.90;;;;;;4884456;29;20352;-70
2021/01/13 00:10:18;;;;;;;19.40;8.70;;;1.10;99.90;;;;;;4915975;29;20257;-70
2021/01/13 00:12:45;;;;;;;19.93;8.63;;;1.10;99.90;;;;;;4918479;29;20632;-70
2021/01/13 00:15:13;;;;;;;21.53;9.10;;;1.10;99.90;;;;;;4886571;29;20290;-71
2021/01/13 00:17:46;;;;;;;19.20;8.27;;;1.10;99.90;;;;;;4887815;29;20203;-70
2021/01/13 00:20:14;;;;;;;19.80;8.80;;;1.60;99.90;;;;;;4916934;29;20215;-70
2021/01/13 00:22:41;;;;;;;16.70;7.77;;;1.10;99.90;;;;;;4901379;29;20207;-70
2021/01/13 00:25:08;;;;;;;19.27;8.93;;;1.10;99.90;;;;;;4918309;29;20269;-70
2021/01/13 00:27:35;;;;;;;20.47;8.47;;;1.10;99.90;;;;;;4918272;29;20677;-71
2021/01/13 00:30:04;;;;;;;15.97;8.03;;;1.10;99.90;;;;;;4897774;29;20227;-70
2021/01/13 00:32:32;;;;;;;14.70;8.23;;;1.20;99.90;;;;;;4899635;29;20259;-71
2021/01/13 00:34:58;;;;;;;20.00;8.87;;;1.10;99.90;;;;;;4916749;29;20206;-70
2021/01/13 00:37:26;;;;;;;18.50;8.53;;;1.20;99.90;;;;;;4928918;29;20232;-71
2021/01/13 00:39:53;;;;;;;16.50;9.00;;;1.20;99.90;;;;;;4995089;28;20290;-71
2021/01/13 00:42:20;;;;;;;14.53;7.13;;;1.20;99.90;;;;;;4996627;28;20262;-71
2021/01/13 00:44:47;;;;;;;16.47;7.87;;;1.20;99.90;;;;;;4994853;28;20211;-71
2021/01/13 00:47:14;;;;;;;14.33;7.00;;;1.20;99.90;;;;;;4975705;28;20200;-71
2021/01/13 00:49:41;;;;;;;12.63;6.60;;;1.20;99.90;;;;;;4975506;28;20231;-71
2021/01/13 00:52:09;;;;;;;11.30;6.30;;;1.20;99.90;;;;;;4956541;29;20231;-71
2021/01/13 00:54:36;;;;;;;13.77;6.43;;;1.20;99.90;;;;;;4956065;29;20241;-72
2021/01/13 00:57:05;;;;;;;13.20;5.67;;;1.20;99.90;;;;;;4956136;29;20278;-71
2021/01/13 00:59:31;;;;;;;10.97;5.77;;;1.20;99.90;;;;;;4956038;28;20201;-71
2021/01/13 01:01:58;;;;;;;10.73;5.97;;;1.20;99.90;;;;;;4932199;29;20206;-71
2021/01/13 01:04:25;;;;;;;7.63;4.90;;;1.30;99.90;;;;;;4936647;29;20241;-71
2021/01/13 01:06:51;;;;;;;8.03;4.77;;;1.20;99.90;;;;;;4955602;29;20220;-71
2021/01/13 01:09:18;;;;;;;9.07;4.53;;;1.20;99.90;;;;;;4956096;29;20221;-71
2021/01/13 01:11:45;;;;;;;6.00;4.30;;;1.20;99.90;;;;;;4964326;28;20238;-71
2021/01/13 01:14:12;;;;;;;11.23;4.37;;;1.20;99.90;;;;;;4974321;28;20204;-71
2021/01/13 01:16:40;;;;;;;5.47;3.50;;;1.20;99.90;;;;;;4955796;29;20205;-71
2021/01/13 01:19:10;;;;;;;5.50;3.27;;;1.20;99.90;;;;;;4907045;29;20206;-71
2021/01/13 01:21:39;;;;;;;2.77;2.53;;;1.10;99.90;;;;;;4901808;29;20600;-71
2021/01/13 01:24:06;;;;;;;5.37;3.00;;;1.10;99.90;;;;;;4932322;29;20210;-71
2021/01/13 01:26:33;;;;;;;5.00;3.17;;;1.10;99.90;;;;;;4936630;29;20296;-71
2021/01/13 01:29:01;;;;;;;4.17;2.53;;;1.00;99.90;;;;;;4936223;29;20218;-71
2021/01/13 01:31:27;;;;;;;5.93;2.57;;;1.00;99.90;;;;;;4936215;29;20208;-71
2021/01/13 01:33:54;;;;;;;4.60;2.87;;;1.00;99.90;;;;;;4903218;29;20215;-70
2021/01/13 01:36:21;;;;;;;3.40;2.87;;;0.90;99.90;;;;;;4950618;29;20208;-70
2021/01/13 01:38:48;;;;;;;4.50;2.83;;;0.90;99.90;;;;;;4969643;28;20224;-70
2021/01/13 01:41:15;;;;;;;4.27;2.77;;;0.90;99.90;;;;;;4974826;28;20211;-70
2021/01/13 01:43:44;;;;;;;4.10;2.80;;;0.90;99.90;;;;;;4974707;28;20212;-70
2021/01/13 01:46:12;;;;;;;5.67;2.63;;;0.90;99.90;;;;;;4976957;28;20290;-70
2021/01/13 01:48:49;;;;;;;6.83;3.37;;;0.90;99.90;;;;;;4991734;28;20196;-70
2021/01/13 01:51:23;;;;;;;3.57;2.43;;;1.00;99.90;;;;;;4993711;28;20286;-70
2021/01/13 01:54:03;;;;;;;2.60;2.33;;;1.00;99.90;;;;;;4993460;28;20661;-70
2021/01/13 01:56:36;;;;;;;4.90;3.00;;;1.00;99.90;;;;;;4973079;28;20295;-70
2021/01/13 01:59:05;;;;;;;6.40;3.27;;;1.10;99.90;;;;;;4935963;29;20202;-70
2021/01/13 02:01:35;;;;;;;5.20;3.10;;;1.10;99.90;;;;;;4937674;28;20202;-70
2021/01/13 02:04:16;;;;;;;3.30;2.97;;;1.10;99.90;;;;;;4955566;29;20237;-70
2021/01/13 02:07:28;;;;;;;5.47;2.90;;;1.10;99.90;;;;;;4965900;28;20707;-70
2021/01/13 02:09:55;;;;;;;4.23;3.17;;;1.10;99.90;;;;;;4965068;28;20324;-70
2021/01/13 02:12:27;;;;;;;6.60;3.60;;;1.10;99.90;;;;;;4954632;29;20209;-70
2021/01/13 02:14:55;;;;;;;5.63;3.80;;;1.10;99.90;;;;;;4954644;29;20205;-70
2021/01/13 02:17:31;;;;;;;6.23;3.33;;;1.10;99.90;;;;;;4963167;28;20212;-70
2021/01/13 02:20:08;;;;;;;6.27;4.00;;;1.10;99.90;;;;;;4966343;28;20211;-71
2021/01/13 02:22:57;;;;;;;4.63;3.00;;;1.10;99.90;;;;;;4935411;29;20243;-70
2021/01/13 02:26:11;;;;;;;4.30;3.10;;;1.10;99.90;;;;;;4928773;29;20206;-70
2021/01/13 02:28:49;;;;;;;5.27;3.20;;;1.10;99.90;;;;;;4929892;29;20718;-70
2021/01/13 02:31:29;;;;;;;4.90;3.33;;;1.10;99.90;;;;;;4898656;29;20239;-70
2021/01/13 02:34:03;;;;;;;4.50;3.13;;;1.10;99.90;;;;;;4897698;29;20207;-70
2021/01/13 02:36:52;;;;;;;4.47;3.33;;;1.20;99.90;;;;;;4897332;29;20211;-70
2021/01/13 02:39:19;;;;;;;4.63;3.30;;;1.20;99.90;;;;;;4897768;29;20191;-70
2021/01/13 02:41:47;;;;;;;7.93;4.27;;;1.20;99.90;;;;;;4945524;29;20201;-70
2021/01/13 02:44:27;;;;;;;8.53;4.03;;;1.20;99.90;;;;;;4987280;28;20208;-70
2021/01/13 02:47:06;;;;;;;6.17;3.40;;;1.20;99.90;;;;;;4973541;28;20562;-70
2021/01/13 02:49:40;;;;;;;5.93;3.93;;;1.20;99.90;;;;;;5011729;28;20227;-70
2021/01/13 02:52:17;;;;;;;9.33;4.20;;;1.20;99.90;;;;;;5015374;28;20205;-70
2021/01/13 02:54:52;;;;;;;5.67;3.43;;;1.20;99.90;;;;;;5012597;28;20206;-70
2021/01/13 02:57:21;;;;;;;6.63;4.53;;;1.30;99.90;;;;;;4992508;28;20202;-70
2021/01/13 02:59:49;;;;;;;7.30;4.27;;;1.30;99.90;;;;;;5015501;28;20201;-70
2021/01/13 03:02:17;;;;;;;6.97;4.53;;;1.30;99.90;;;;;;5046364;28;20198;-70
2021/01/13 03:04:44;;;;;;;5.40;4.03;;;1.30;99.90;;;;;;5032261;28;20213;-70
2021/01/13 03:07:12;;;;;;;5.90;3.97;;;1.30;99.90;;;;;;5031855;28;20206;-70
2021/01/13 03:09:41;;;;;;;12.17;5.43;;;1.30;99.90;;;;;;5011705;28;20338;-70
2021/01/13 03:12:18;;;;;;;9.07;4.70;;;1.30;99.90;;;;;;5012592;28;20199;-70
2021/01/13 03:14:50;;;;;;;8.77;4.60;;;1.30;99.90;;;;;;5011799;28;20712;-70
2021/01/13 03:17:30;;;;;;;8.57;4.90;;;1.30;99.90;;;;;;5011930;28;20210;-70
2021/01/13 03:20:25;;;;;;;7.37;4.30;;;1.30;99.90;;;;;;5011850;28;20208;-71
2021/01/13 03:23:02;;;;;;;7.50;4.77;;;1.70;99.90;;;;;;4972732;28;20748;-70
2021/01/13 03:25:35;;;;;;;6.20;3.97;;;1.20;99.90;;;;;;4985019;28;20200;-70
2021/01/13 03:28:03;;;;;;;7.40;4.30;;;1.10;99.90;;;;;;4965837;28;20202;-70
2021/01/13 03:30:34;;;;;;;5.67;4.17;;;1.20;99.90;;;;;;4967581;28;20251;-70
2021/01/13 03:33:30;;;;;;;5.10;3.60;;;1.20;99.90;;;;;;4991981;28;20223;-70
2021/01/13 03:36:00;;;;;;;6.73;4.00;;;1.20;99.90;;;;;;4991966;28;20203;-70
2021/01/13 03:38:29;;;;;;;7.70;4.70;;;1.20;99.90;;;;;;4991421;28;20228;-70
2021/01/13 03:41:02;;;;;;;8.47;4.30;;;1.20;99.90;;;;;;4972787;28;20631;-70
2021/01/13 03:43:35;;;;;;;8.77;4.80;;;1.20;99.90;;;;;;4972799;28;20243;-70
2021/01/13 03:46:05;;;;;;;7.57;4.77;;;1.20;99.90;;;;;;4992015;28;20211;-71
2021/01/13 03:48:45;;;;;;;10.97;5.40;;;1.20;99.90;;;;;;4992088;28;20299;-70
2021/01/13 03:51:57;;;;;;;7.73;5.30;;;1.20;99.90;;;;;;5011127;28;20318;-70
2021/01/13 03:54:25;;;;;;;9.90;5.27;;;1.10;99.90;;;;;;4977978;28;20686;-70
2021/01/13 03:57:00;;;;;;;10.90;6.20;;;1.10;99.90;;;;;;4947694;28;20671;-70
2021/01/13 03:59:44;;;;;;;22.37;10.37;;;1.10;99.90;;;;;;4946885;29;20540;-70
2021/01/13 04:02:17;;;;;;;15.00;9.50;;;1.10;99.90;;;;;;5017489;28;20251;-69
2021/01/13 04:04:58;;;;;;;18.70;9.90;;;1.10;99.90;;;;;;5031482;28;20680;-70
2021/01/13 04:07:30;;;;;;;21.80;12.13;;;1.00;99.90;;;;;;4972524;28;20301;-70
2021/01/13 04:10:00;;;;;;;20.53;11.33;;;1.10;99.90;;;;;;4972662;28;20697;-70
2021/01/13 04:12:33;;;;;;;20.50;11.73;;;1.10;99.90;;;;;;4986008;28;20548;-70
2021/01/13 04:15:00;;;;;;;18.87;9.97;;;1.10;99.90;;;;;;4972249;28;20212;-70
2021/01/13 04:17:28;;;;;;;17.57;9.80;;;1.10;99.90;;;;;;4953087;28;20307;-71
2021/01/13 04:19:55;;;;;;;16.93;9.47;;;1.00;99.90;;;;;;4952574;29;20207;-70
2021/01/13 04:22:25;;;;;;;15.50;9.30;;;1.00;99.90;;;;;;5001666;28;20199;-70
2021/01/13 04:24:54;;;;;;;16.60;8.77;;;0.90;99.90;;;;;;4991812;28;20200;-70
2021/01/13 04:27:21;;;;;;;17.80;9.00;;;1.00;99.90;;;;;;4972387;28;20200;-70
2021/01/13 04:29:48;;;;;;;15.40;8.60;;;0.90;99.90;;;;;;4971709;28;20722;-70
2021/01/13 04:32:15;;;;;;;16.67;8.53;;;0.90;99.90;;;;;;4955820;28;20733;-71
2021/01/13 04:34:44;;;;;;;15.60;8.47;;;0.90;99.90;;;;;;4972003;28;20223;-71
2021/01/13 04:37:11;;;;;;;13.17;8.30;;;0.90;99.90;;;;;;4972200;28;20275;-71
2021/01/13 04:39:38;;;;;;;14.93;7.33;;;0.90;99.90;;;;;;4972585;28;20231;-70
2021/01/13 04:42:10;;;;;;;14.37;7.73;;;0.80;99.90;;;;;;4952483;29;20212;-68
2021/01/13 04:44:45;;;;;;;9.77;6.57;;;0.80;99.90;;;;;;4941078;29;20217;-71
2021/01/13 04:47:12;;;;;;;7.67;4.97;;;0.80;99.90;;;;;;4934565;29;20636;-70
2021/01/13 04:49:39;;;;;;;10.87;5.57;;;0.80;99.90;;;;;;4935386;29;20264;-70
2021/01/13 04:52:19;;;;;;;7.27;4.33;;;0.80;99.90;;;;;;4936999;29;20767;-71
2021/01/13 04:54:48;;;;;;;7.00;4.60;;;0.80;99.90;;;;;;4945203;29;20205;-71
2021/01/13 04:57:53;;;;;;;5.87;3.87;;;0.80;99.90;;;;;;4936738;29;20672;-70
2021/01/13 05:00:57;;;;;;;4.00;2.87;;;0.80;99.90;;;;;;4911973;29;20670;-70
2021/01/13 05:03:43;;;;;;;2.73;2.20;;;0.70;99.90;;;;;;4899125;29;20818;-70
2021/01/13 05:06:46;;;;;;;3.53;1.83;;;0.70;99.90;;;;;;4917655;29;20545;-70
2021/01/13 05:09:15;;;;;;;3.13;1.57;;;0.70;99.90;;;;;;4917628;29;20316;-70
2021/01/13 05:11:43;;;;;;;2.30;1.60;;;0.70;99.90;;;;;;4918040;29;20303;-70
2021/01/13 05:14:11;;;;;;;1.90;1.60;;;0.60;99.90;;;;;;4917674;29;20298;-70
2021/01/13 05:17:03;;;;;;;1.37;1.27;;;0.60;99.90;;;;;;4903559;29;20257;-70
2021/01/13 05:20:05;;;;;;;2.47;1.40;;;0.60;99.90;;;;;;4917322;29;20665;-70
2021/01/13 05:22:34;;;;;;;3.80;1.43;;;0.50;99.90;;;;;;4945703;28;20582;-70
2021/01/13 05:25:05;;;;;;;4.23;1.47;;;0.50;99.90;;;;;;4981178;28;20672;-70
2021/01/13 05:28:05;;;;;;;1.73;1.43;;;0.50;99.90;;;;;;5017816;28;20206;-70
2021/01/13 05:30:33;;;;;;;1.60;1.23;;;0.50;99.90;;;;;;4936066;29;20581;-69
2021/01/13 05:33:05;;;;;;;2.10;1.40;;;0.50;99.90;;;;;;4936337;29;20695;-69
2021/01/13 05:35:36;;;;;;;2.10;1.50;;;0.50;99.90;;;;;;4955719;29;20205;-69
2021/01/13 05:38:39;;;;;;;4.27;1.70;;;0.50;99.90;;;;;;4970973;28;20323;-70
2021/01/13 05:41:10;;;;;;;2.13;1.43;;;0.50;99.90;;;;;;4917033;29;20645;-69
2021/01/13 05:43:42;;;;;;;3.20;1.60;;;0.50;99.90;;;;;;4898442;29;20210;-69
2021/01/13 05:46:11;;;;;;;3.33;1.80;;;0.50;99.90;;;;;;4916533;29;20673;-69
2021/01/13 05:48:41;;;;;;;4.40;1.83;;;0.50;99.90;;;;;;4916706;29;20641;-69
2021/01/13 05:51:09;;;;;;;3.27;1.80;;;0.40;99.90;;;;;;4832953;29;20378;-69
2021/01/13 05:53:37;;;;;;;3.63;2.10;;;0.40;99.90;;;;;;4823625;29;20596;-69
2021/01/13 05:56:05;;;;;;;4.70;2.10;;;0.40;99.90;;;;;;4823416;29;20213;-69
2021/01/13 05:58:33;;;;;;;3.37;2.40;;;0.20;99.90;;;;;;4823684;29;20221;-68
2021/01/13 06:01:00;;;;;;;2.63;1.77;;;0.40;99.90;;;;;;4797811;29;20703;-69
2021/01/13 06:03:29;;;;;;;3.87;2.17;;;0.40;99.90;;;;;;4842078;29;20205;-69
2021/01/13 06:05:58;;;;;;;6.37;2.80;;;0.40;99.90;;;;;;4871253;29;20208;-69
2021/01/13 06:08:27;;;;;;;8.30;2.50;;;0.40;99.90;;;;;;4863642;29;20235;-69
2021/01/13 06:10:58;;;;;;;3.43;2.47;;;0.40;99.90;;;;;;4878510;29;20556;-69
2021/01/13 06:13:29;;;;;;;4.60;2.07;;;0.40;99.90;;;;;;4916133;29;20245;-69
2021/01/13 06:16:05;;;;;;;4.30;2.00;;;0.40;99.90;;;;;;4928694;29;20206;-69
2021/01/13 06:18:34;;;;;;;5.80;2.37;;;0.40;99.90;;;;;;4944530;29;20264;-69
2021/01/13 06:21:10;;;;;;;3.70;2.27;;;0.40;99.90;;;;;;4954173;29;20209;-69
2021/01/13 06:23:47;;;;;;;4.40;2.27;;;0.40;99.90;;;;;;4932632;29;20205;-69
2021/01/13 06:26:15;;;;;;;4.80;2.27;;;0.40;99.90;;;;;;4932294;29;20296;-69
2021/01/13 06:29:16;;;;;;;3.37;2.37;;;0.30;99.90;;;;;;4897229;29;20213;-69
2021/01/13 06:31:47;;;;;;;4.27;2.30;;;0.20;99.90;;;;;;4904342;29;20217;-68
2021/01/13 06:34:29;;;;;;;4.03;2.57;;;0.20;99.90;;;;;;4916303;29;20617;-68
2021/01/13 06:37:22;;;;;;;6.03;2.50;;;0.20;99.90;;;;;;4916066;29;20202;-70
2021/01/13 06:39:50;;;;;;;4.70;2.67;;;0.10;99.90;;;;;;4896953;29;20270;-69
2021/01/13 06:42:28;;;;;;;4.27;2.50;;;0.20;99.90;;;;;;4909022;29;20562;-69
2021/01/13 06:44:55;;;;;;;5.47;2.43;;;0.20;99.90;;;;;;4929281;29;20604;-69
2021/01/13 06:47:24;;;;;;;6.80;2.67;;;0.20;99.90;;;;;;4935051;29;20336;-69
2021/01/13 06:49:52;;;;;;;4.87;3.03;;;0.30;99.90;;;;;;4934603;29;20274;-69
2021/01/13 06:52:30;;;;;;;6.57;2.63;;;0.30;99.90;;;;;;4934577;29;20688;-69
2021/01/13 06:54:58;;;;;;;3.50;2.63;;;0.30;99.90;;;;;;4954200;29;20528;-69
2021/01/13 06:57:28;;;;;;;4.00;2.70;;;0.40;99.90;;;;;;4953594;29;20305;-69
2021/01/13 06:59:56;;;;;;;5.40;2.53;;;0.40;99.90;;;;;;4953324;29;20219;-69
2021/01/13 07:02:33;;;;;;;4.47;2.80;;;0.40;99.90;;;;;;4953545;29;20205;-69
2021/01/13 07:05:00;;;;;;;4.60;2.70;;;0.40;99.90;;;;;;4915310;29;20741;-69
2021/01/13 07:07:29;;;;;;;5.93;2.87;;;0.50;99.90;;;;;;4915565;29;20301;-69
2021/01/13 07:09:56;;;;;;;5.73;2.90;;;0.50;99.90;;;;;;4934075;29;20361;-68
2021/01/13 07:12:25;;;;;;;3.93;2.73;;;0.60;99.90;;;;;;4934066;29;20215;-68
2021/01/13 07:14:54;;;;;;;4.83;2.83;;;0.60;99.90;;;;;;4935743;29;20210;-68
2021/01/13 07:17:22;;;;;;;6.00;3.23;;;0.70;99.90;;;;;;4962661;28;20208;-68
2021/01/13 07:19:50;;;;;;;5.27;3.27;;;0.70;99.90;;;;;;4953480;29;20220;-68
2021/01/13 07:22:19;;;;;;;4.57;2.80;;;0.70;99.90;;;;;;4934304;29;20210;-68
2021/01/13 07:24:46;;;;;;;6.33;3.00;;;0.70;99.90;;;;;;4915864;29;20656;-69
2021/01/13 07:27:15;;;;;;;2.33;2.13;;;0.80;99.90;;;;;;4915293;29;20213;-68
2021/01/13 07:29:42;;;;;;;4.20;2.50;;;0.80;99.90;;;;;;4915164;29;20230;-69
2021/01/13 07:32:11;;;;;;;6.43;2.47;;;0.80;99.90;;;;;;4934254;29;20216;-69
2021/01/13 07:34:39;;;;;;;7.37;3.10;;;0.80;99.90;;;;;;4908062;29;20207;-69
2021/01/13 07:37:08;;;;;;;6.57;2.63;;;0.80;99.90;;;;;;4915337;29;20206;-69
2021/01/13 07:40:13;;;;;;;7.23;3.40;;;0.90;99.90;;;;;;4914896;29;20289;-69
2021/01/13 07:42:41;;;;;;;5.37;2.90;;;0.90;99.90;;;;;;4893563;29;20298;-68
2021/01/13 07:45:13;;;;;;;5.60;3.10;;;0.90;99.90;;;;;;4877714;29;20279;-69
2021/01/13 07:48:10;;;;;;;6.00;3.30;;;0.90;99.90;;;;;;4885229;29;20206;-68
2021/01/13 07:50:41;;;;;;;8.67;3.67;;;1.00;99.90;;;;;;4815199;29;20238;-68
2021/01/13 07:53:10;;;;;;;6.97;3.37;;;1.00;99.90;;;;;;4786169;30;20260;-69
2021/01/13 07:55:43;;;;;;;7.67;3.53;;;1.00;99.90;;;;;;4775908;30;20275;-68
2021/01/13 07:58:20;;;;;;;8.33;4.13;;;1.00;99.90;;;;;;4770564;30;20227;-69
2021/01/13 08:00:58;;;;;;;7.40;4.20;;;1.00;99.90;;;;;;4795082;29;20304;-68
2021/01/13 08:04:19;;;;;;;8.73;4.53;;;1.00;99.90;;;;;;4793713;29;20298;-68
2021/01/13 08:06:47;;;;;;;11.63;5.17;;;1.00;99.90;;;;;;4786632;30;20219;-69
2021/01/13 08:09:19;;;;;;;10.90;5.40;;;1.10;99.90;;;;;;4786420;29;20280;-69
2021/01/13 08:12:31;;;;;;;11.90;5.30;;;1.10;99.90;;;;;;4853430;29;20214;-69
2021/01/13 08:15:49;;;;;;;8.63;4.40;;;1.10;99.90;;;;;;4840731;29;20707;-69
2021/01/13 08:18:49;;;;;;;7.40;4.00;;;1.10;99.90;;;;;;4859420;29;20208;-69
2021/01/13 08:21:24;;;;;;;10.93;4.93;;;1.20;99.90;;;;;;4871765;29;20203;-69
2021/01/13 08:23:56;;;;;;;10.47;4.87;;;1.20;99.90;;;;;;4915951;29;20293;-69
2021/01/13 08:26:23;;;;;;;9.10;5.17;;;1.20;99.90;;;;;;4921734;29;20289;-69
2021/01/13 08:28:52;;;;;;;8.23;4.73;;;1.30;99.90;;;;;;4991475;28;20200;-69
2021/01/13 08:31:21;;;;;;;10.07;4.83;;;1.30;99.90;;;;;;5045777;28;20229;-70
2021/01/13 08:33:50;;;;;;;11.73;5.13;;;1.40;99.90;;;;;;5034539;28;20260;-69
2021/01/13 08:36:17;;;;;;;15.87;6.97;;;1.40;99.90;;;;;;5035211;28;20213;-69
2021/01/13 08:39:07;;;;;;;17.80;6.97;;;1.50;99.90;;;;;;5034491;28;20288;-70
2021/01/13 08:41:36;;;;;;;15.67;7.37;;;1.50;99.90;;;;;;5035100;28;20277;-70
2021/01/13 08:44:05;;;;;;;17.63;6.57;;;1.60;99.90;;;;;;5034396;28;20206;-70
2021/01/13 08:46:50;;;;;;;18.07;6.80;;;1.60;99.90;;;;;;5014818;28;20203;-70
2021/01/13 08:49:26;;;;;;;13.83;6.70;;;1.60;99.90;;;;;;4995366;28;20200;-70
2021/01/13 08:52:16;;;;;;;19.50;7.87;;;1.60;99.90;;;;;;4995557;28;20638;-70
2021/01/13 08:54:44;;;;;;;18.17;7.30;;;1.60;99.90;;;;;;4979962;28;20232;-70
2021/01/13 08:57:13;;;;;;;18.57;6.83;;;1.50;99.90;;;;;;4975675;28;20764;-70
2021/01/13 08:59:42;;;;;;;16.93;6.33;;;1.50;99.90;;;;;;4986772;28;20270;-70
2021/01/13 09:02:11;;;;;;;19.70;7.70;;;1.50;99.90;;;;;;4984072;28;20207;-70
2021/01/13 09:04:52;;;;;;;17.57;7.17;;;1.50;99.90;;;;;;4995453;28;20207;-70
2021/01/13 09:07:22;;;;;;;21.73;7.10;;;1.50;99.90;;;;;;4994700;28;20196;-70
2021/01/13 09:09:57;;;;;;;15.73;7.00;;;1.50;99.90;;;;;;4975126;28;20220;-70
2021/01/13 09:12:33;;;;;;;16.73;7.30;;;1.50;99.90;;;;;;4975151;28;20232;-70
2021/01/13 09:15:16;;;;;;;20.53;8.27;;;1.50;99.90;;;;;;5003688;28;20226;-70
2021/01/13 09:17:48;;;;;;;19.47;8.20;;;1.50;99.90;;;;;;4975534;28;20203;-70
2021/01/13 09:20:33;;;;;;;21.23;8.50;;;1.40;99.90;;;;;;4966090;28;20216;-70
2021/01/13 09:23:03;;;;;;;22.67;8.43;;;1.50;99.90;;;;;;4956442;29;20201;-70
2021/01/13 09:25:32;;;;;;;18.13;8.27;;;1.50;99.90;;;;;;4956072;29;20212;-70
2021/01/13 09:28:01;;;;;;;20.67;8.80;;;1.50;99.90;;;;;;4955686;29;20220;-71
2021/01/13 09:30:34;;;;;;;20.20;8.57;;;1.50;99.90;;;;;;4955757;29;20221;-70
2021/01/13 09:33:03;;;;;;;21.17;8.47;;;1.50;99.90;;;;;;4936747;29;20206;-70
2021/01/13 09:35:31;;;;;;;18.80;8.13;;;1.50;99.90;;;;;;4935871;29;20626;-69
2021/01/13 09:38:00;;;;;;;20.60;7.93;;;1.60;99.90;;;;;;4935865;29;20241;-70
2021/01/13 09:40:56;;;;;;;20.57;8.70;;;1.60;99.90;;;;;;4942688;29;20197;-70
2021/01/13 09:43:35;;;;;;;25.77;8.90;;;1.60;99.90;;;;;;4952371;29;20213;-69
2021/01/13 09:46:04;;;;;;;20.00;8.70;;;1.70;99.90;;;;;;4955959;29;20212;-70
2021/01/13 09:48:32;;;;;;;20.97;8.70;;;1.70;99.90;;;;;;4963328;28;20215;-70
2021/01/13 09:51:01;;;;;;;25.33;9.23;;;1.80;99.90;;;;;;4993741;28;20231;-69
2021/01/13 09:53:34;;;;;;;19.63;8.33;;;1.80;99.90;;;;;;5011845;28;20297;-70
2021/01/13 09:56:06;;;;;;;22.23;8.57;;;1.90;99.90;;;;;;5013270;28;20653;-69
2021/01/13 09:58:41;;;;;;;21.27;8.70;;;1.90;99.90;;;;;;4993908;28;20593;-69
2021/01/13 10:01:13;;;;;;;19.13;7.50;;;1.90;99.90;;;;;;4974627;28;20208;-69
2021/01/13 10:03:42;;;;;;;16.77;7.57;;;1.90;99.90;;;;;;4987359;28;20201;-69
2021/01/13 10:06:19;;;;;;;17.33;7.80;;;1.90;99.90;;;;;;4973970;28;20197;-69
2021/01/13 10:08:47;;;;;;;14.43;7.13;;;1.90;99.90;;;;;;4974153;28;20211;-70
2021/01/13 10:11:14;;;;;;;15.07;6.90;;;2.00;99.90;;;;;;4981762;28;20800;-70
2021/01/13 10:13:43;;;;;;;15.43;6.73;;;2.10;99.90;;;;;;5032945;28;20264;-70
2021/01/13 10:16:12;;;;;;;15.93;7.37;;;2.10;99.90;;;;;;5033143;28;20214;-71
2021/01/13 10:18:49;;;;;;;15.83;7.67;;;2.10;99.90;;;;;;5032851;28;20241;-70
2021/01/13 10:21:17;;;;;;;21.23;8.30;;;2.20;99.90;;;;;;5029560;28;20212;-69
2021/01/13 10:23:45;;;;;;;18.07;8.53;;;2.20;99.90;;;;;;4990191;28;20200;-70
2021/01/13 10:26:12;;;;;;;18.00;8.40;;;2.10;99.90;;;;;;4974362;28;20201;-70
2021/01/13 10:28:39;;;;;;;17.30;7.90;;;2.10;99.90;;;;;;4991105;28;20638;-71
2021/01/13 10:31:09;;;;;;;15.47;7.53;;;2.00;99.90;;;;;;4993463;28;20669;-69
2021/01/13 10:33:53;;;;;;;16.93;8.10;;;2.00;99.90;;;;;;4962226;28;20604;-69
2021/01/13 10:36:38;;;;;;;14.47;7.33;;;1.90;99.90;;;;;;4932629;29;20235;-69
2021/01/13 10:39:07;;;;;;;15.70;7.87;;;1.90;99.90;;;;;;4915964;29;20298;-70
2021/01/13 10:41:37;;;;;;;20.53;7.67;;;1.90;99.90;;;;;;4916292;29;20291;-70
2021/01/13 10:44:07;;;;;;;15.53;7.57;;;1.90;99.90;;;;;;4939355;29;20213;-70
2021/01/13 10:46:52;;;;;;;15.47;7.53;;;1.80;99.90;;;;;;4958096;28;20203;-70
2021/01/13 10:49:30;;;;;;;18.03;7.73;;;1.70;99.90;;;;;;5012269;28;20256;-70
2021/01/13 10:51:58;;;;;;;17.10;8.17;;;1.60;99.90;;;;;;4993072;28;20203;-70
2021/01/13 10:54:26;;;;;;;17.10;7.60;;;1.50;99.90;;;;;;4992569;28;20258;-70
2021/01/13 10:56:58;;;;;;;14.83;6.47;;;1.40;99.90;;;;;;4993042;28;20539;-70
2021/01/13 10:59:25;;;;;;;21.67;7.90;;;1.40;99.90;;;;;;4973440;28;20208;-70
2021/01/13 11:01:54;;;;;;;16.53;7.80;;;1.40;99.90;;;;;;4988293;28;20208;-70
2021/01/13 11:04:26;;;;;;;19.47;7.33;;;1.40;99.90;;;;;;4992634;28;20203;-70
2021/01/13 11:06:58;;;;;;;16.27;7.70;;;1.30;99.90;;;;;;4992947;28;20282;-70
2021/01/13 11:09:25;;;;;;;17.80;7.03;;;1.30;99.90;;;;;;5012621;28;20257;-70
2021/01/13 11:11:53;;;;;;;15.23;7.60;;;1.30;99.90;;;;;;5012212;28;20202;-70
2021/01/13 11:14:43;;;;;;;15.80;7.70;;;1.40;99.90;;;;;;5015381;28;20206;-70
2021/01/13 11:17:15;;;;;;;21.00;8.23;;;1.40;99.90;;;;;;5038771;28;20209;-70
2021/01/13 11:19:44;;;;;;;16.20;7.27;;;1.40;99.90;;;;;;5046901;28;20222;-70
2021/01/13 11:22:12;;;;;;;15.43;7.23;;;1.50;99.90;;;;;;5028469;28;20213;-70
2021/01/13 11:24:42;;;;;;;17.03;7.33;;;1.50;99.90;;;;;;5011970;28;20215;-70
2021/01/13 11:27:10;;;;;;;15.73;6.97;;;1.60;99.90;;;;;;5012128;28;20210;-70
2021/01/13 11:29:39;;;;;;;13.33;6.83;;;1.60;99.90;;;;;;5012328;28;20235;-70
2021/01/13 11:32:08;;;;;;;17.97;7.80;;;1.60;99.90;;;;;;5031559;28;20206;-69
2021/01/13 11:34:35;;;;;;;16.37;6.90;;;1.60;99.90;;;;;;5012034;28;20665;-70
2021/01/13 11:37:20;;;;;;;17.83;7.50;;;1.60;99.90;;;;;;5011670;28;20261;-70
2021/01/13 11:40:02;;;;;;;19.07;7.50;;;1.70;99.90;;;;;;5007473;28;20219;-70
2021/01/13 11:42:50;;;;;;;18.90;8.27;;;1.70;99.90;;;;;;4992080;28;20203;-70
2021/01/13 11:45:20;;;;;;;19.83;8.30;;;1.70;99.90;;;;;;5011689;28;20237;-70
2021/01/13 11:47:50;;;;;;;21.93;9.03;;;1.60;99.90;;;;;;5011673;28;20297;-70
2021/01/13 11:50:22;;;;;;;21.47;9.00;;;1.60;99.90;;;;;;5011733;28;20598;-70
2021/01/13 11:52:54;;;;;;;19.33;8.97;;;1.50;99.90;;;;;;5030444;28;20195;-70
2021/01/13 11:55:27;;;;;;;22.13;9.73;;;1.50;99.90;;;;;;5031990;28;20237;-70
2021/01/13 11:57:53;;;;;;;24.90;9.80;;;1.40;99.90;;;;;;5033228;28;20233;-70
2021/01/13 12:00:23;;;;;;;22.23;8.70;;;1.40;99.90;;;;;;5036001;28;20264;-71
2021/01/13 12:02:51;;;;;;;25.43;9.90;;;1.50;99.90;;;;;;5035228;28;20209;-70
2021/01/13 12:05:28;;;;;;;21.43;9.10;;;1.50;99.90;;;;;;5043329;28;20210;-70
2021/01/13 12:08:02;;;;;;;24.27;10.00;;;1.50;99.90;;;;;;5055505;28;20205;-70
2021/01/13 12:10:34;;;;;;;27.60;10.53;;;1.40;99.90;;;;;;5062954;28;20322;-70
2021/01/13 12:13:14;;;;;;;28.30;11.27;;;1.40;99.90;;;;;;5075354;28;20201;-70
2021/01/13 12:15:55;;;;;;;28.17;11.03;;;1.40;99.90;;;;;;5050478;28;20229;-70
2021/01/13 12:18:24;;;;;;;26.37;11.13;;;1.40;99.90;;;;;;5035792;28;20213;-70
2021/01/13 12:20:53;;;;;;;27.00;11.67;;;1.40;99.90;;;;;;5035294;28;20533;-70
2021/01/13 12:23:23;;;;;;;34.67;13.37;;;1.40;99.90;;;;;;5035525;28;20207;-70
2021/01/13 12:25:50;;;;;;;34.57;13.37;;;1.50;99.90;;;;;;5034926;28;20213;-70
2021/01/13 12:28:16;;;;;;;41.10;15.67;;;1.50;99.90;;;;;;5035022;28;20676;-71
2021/01/13 12:30:57;;;;;;;34.83;14.80;;;1.40;99.90;;;;;;5034733;28;20754;-70
2021/01/13 12:33:24;;;;;;;35.60;13.27;;;1.40;99.90;;;;;;5053426;28;20200;-70
2021/01/13 12:35:52;;;;;;;35.23;13.90;;;1.30;99.90;;;;;;5095327;28;20315;-70
2021/01/13 12:38:35;;;;;;;34.77;14.63;;;1.30;99.90;;;;;;5094304;28;20695;-70
2021/01/13 12:41:04;;;;;;;35.77;14.03;;;1.40;99.90;;;;;;5095720;28;20232;-70
2021/01/13 12:43:35;;;;;;;30.63;13.07;;;1.40;99.90;;;;;;5095096;28;20520;-70
2021/01/13 12:46:02;;;;;;;34.07;14.67;;;1.50;99.90;;;;;;5095444;28;20580;-70
2021/01/13 12:48:28;;;;;;;34.17;14.03;;;1.50;99.90;;;;;;5094789;28;20315;-70
2021/01/13 12:50:56;;;;;;;33.53;14.33;;;1.50;99.90;;;;;;5094876;28;20758;-70
2021/01/13 12:53:22;;;;;;;27.03;13.47;;;1.50;99.90;;;;;;5106976;28;20195;-70
2021/01/13 12:55:49;;;;;;;28.03;13.13;;;1.60;99.90;;;;;;5115064;28;20226;-70
2021/01/13 12:58:15;;;;;;;30.67;13.97;;;1.60;99.90;;;;;;5115064;28;20616;-70
2021/01/13 13:00:42;;;;;;;23.63;12.43;;;1.60;99.90;;;;;;5114893;28;20226;-70
2021/01/13 13:03:08;;;;;;;26.83;12.67;;;1.60;99.90;;;;;;5115443;28;20207;-71
2021/01/13 13:05:35;;;;;;;25.20;11.97;;;1.50;99.90;;;;;;5094456;28;20204;-71
2021/01/13 13:08:02;;;;;;;23.93;11.60;;;1.40;99.90;;;;;;5094568;28;20228;-71
2021/01/13 13:10:29;;;;;;;23.80;12.00;;;1.40;99.90;;;;;;5093320;28;20248;-71
2021/01/13 13:12:55;;;;;;;22.17;11.47;;;1.30;99.90;;;;;;5094215;28;20204;-71
2021/01/13 13:15:22;;;;;;;23.33;11.77;;;1.30;99.90;;;;;;5094460;28;20207;-71
2021/01/13 13:17:48;;;;;;;27.23;12.10;;;1.40;99.90;;;;;;5094580;28;20236;-71
2021/01/13 13:20:15;;;;;;;22.83;11.30;;;1.50;99.90;;;;;;5041009;28;20202;-71